Nearby METAR Reports

 

GCLP - Las Palmas/Gando, Spain
Distance from station: NE 26km
Updated: 20/09/2018 21:00
Mostly cloudy
Mostly cloudy
 Wind from NNE
Wind: NNE 30 km/h
Temperature: 24°C
Dew Point: 20°C
Humidity: 78%
Barometer: 1019 hPa
Clouds: Mostly cloudy
Visibility: 10 km
Cloud details: Few Clouds 396 m
Mostly cloudy 610 m
2018/09/20 21:00 GCLP 202100Z 02016KT 9999 FEW013 BKN020 24/20 Q1019 NOSIG
GCTS - Tenerife Sur/Rei, Spain
Distance from station: WNW 102km
Updated: 20/09/2018 21:00
Mostly cloudy
Mostly cloudy
 Wind from E
Wind: E 22 km/h
Temperature: 24°C
Dew Point: 20°C
Humidity: 78%
Barometer: 1020 hPa
Clouds: Mostly cloudy
Visibility: 10 km
Cloud details: Mostly cloudy 579 m
2018/09/20 21:00 GCTS 202100Z 08012KT 9999 BKN019 24/20 Q1020 NOSIG
 
GCXO - Tenerife/Los Rod, Spain
Distance from station: NW 110km
Updated: 20/09/2018 21:00
Partly cloudy
Partly cloudy
 Wind from WNW
Wind: WNW 20 km/h
Temperature: 19°C
Dew Point: 18°C
Humidity: 94%
Barometer: 1022 hPa
Clouds: Partly cloudy
Visibility: 9 km
Cloud details: Few Clouds 30 m
Partly cloudy 91 m
2018/09/20 21:00 GCXO 202100Z 29011KT 9000 FEW001 SCT003 19/18 Q1022 NOSIG
GCGM - La Gomera Arpt, Spain
Distance from station: W 164km
Updated: 20/09/2018 21:00
Overcast
Overcast
 Wind from varies
Wind: varies 4 km/h
Temperature: 22°C
Dew Point: 20°C
Humidity: 88%
Barometer: 1020 hPa
Clouds: Overcast
Visibility: 10 km
Cloud details: Overcast 427 m
2018/09/20 21:00 GCGM 202100Z AUTO VRB02KT 9999 OVC014/// 22/20 Q1020 RMK R09/VRB02KT ARP/VRB02KT
 
GCFV - Fuerteventura Ar, Spain
Distance from station: ENE 183km
Updated: 20/09/2018 21:00
Clear
Clear
 Wind from N
Wind: N 13 km/h
Temperature: 24°C
Dew Point: 19°C
Humidity: 74%
Barometer: 1019 hPa
Summary: Clear
Visibility: greater than 10 km
2018/09/20 21:00 GCFV 202100Z 36007KT CAVOK 24/19 Q1019
GCHI - Hierro Airport, Spain
Distance from station: W 226km
Updated: 20/09/2018 21:00
Clear
Clear
 Wind from N
Wind: N 24 km/h
Temperature: 23°C
Dew Point: 20°C
Humidity: 83%
Barometer: 1020 hPa
Summary: Clear
Visibility: greater than 10 km
2018/09/20 21:00 GCHI 202100Z AUTO 35013KT CAVOK 23/20 Q1020
 
GCLA - La Palma Airport, Spain
Distance from station: WNW 233km
Updated: 20/09/2018 21:00
Partly cloudy
Partly cloudy
 Wind from NNE
Wind: NNE 15 km/h
Temperature: 23°C
Dew Point: 20°C
Humidity: 83%
Barometer: 1020 hPa
Clouds: Partly cloudy
Visibility: 10 km
Cloud details: Partly cloudy 945 m
2018/09/20 21:00 GCLA 202100Z AUTO 02008KT 360V060 9999 SCT031/// 23/20 Q1020
GCRR - Arrecife/Lanzaro, Spain
Distance from station: NE 234km
Updated: 20/09/2018 21:00
Few Clouds
Few Clouds
 Wind from NNE
Wind: NNE 17 km/h
Temperature: 23°C
Dew Point: 19°C
Humidity: 78%
Barometer: 1019 hPa
Clouds: Few Clouds
Visibility: 10 km
Cloud details: Few Clouds 610 m
2018/09/20 21:00 GCRR 202100Z 02009KT 9999 FEW020 23/19 Q1019
 
LPMA - Funchal/Madeira, Portugal
Distance from station: NNW 556km
Updated: 20/09/2018 21:00
Few Clouds
Few Clouds
 Wind from N
Wind: N 17 km/h
Temperature: 23°C
Dew Point: 16°C
Humidity: 65%
Barometer: 1021 hPa
Clouds: Few Clouds
Visibility: 10 km
Cloud details: Few Clouds 488 m
2018/09/20 21:00 LPMA 202100Z 36009KT 330V030 9999 FEW016 23/16 Q1021
LPPS - Porto Santo Isla, Portugal
Distance from station: N 594km
Updated: 20/09/2018 21:00
Partly cloudy
Partly cloudy
 Wind from NE
Wind: NE 13 km/h
Temperature: 22°C
Dew Point: 18°C
Humidity: 78%
Barometer: 1022 hPa
Clouds: Partly cloudy
Visibility: 10 km
Cloud details: Partly cloudy 457 m
Partly cloudy 914 m
2018/09/20 21:00 LPPS 202100Z 04007KT 010V080 9999 SCT015 SCT030 22/18 Q1022